Carnival Conquest — 3FPQ9 — position and weather

sailwx.info

Track history (hours):
 
Tides and Currents Weather Stations Pressure Air Temp Water Temp Dewpoint Dewpoint Depression Visibility Wind Speed Wind Dir Waves Ship Positions

Carnival Conquest

Operator: Carnival Cruise Lines

Last reported at 2020-Apr-06 05:00 UTC. Time now 2020-Apr-06 18:25 UTC.
Position N 27°36' W 079°18'.

Type: Ship. MMSI: 357657000.

Wind from 100 at 25 knots

Barometer 1018.8 mb
Air temperature 19.0 ° C
Visibility: greater than 2.2 NM
Dewpoint 14.2 ° C
Water temperature 26.2 ° C

Date/timePositionNaut miles runAvg speedWind from/ knotsBaromVisibWave heightAir tempDewpointWater temp
2020-Apr-06 05:00N 27°36' W 079°18'9110.1 100 / 251018.8 2.2 19.014.226.2
2020-Apr-05 20:00N 26°06' W 079°34'1919.1
2020-Apr-05 19:00N 25°48' W 079°42'4 8.7 160 / 101015.310.8 25.019.126.5
2020-Apr-05 18:30N 25°47' W 079°47'21 8.5
2020-Apr-05 16:00N 25°47' W 080°10'0 0.0
2020-Apr-05 15:00N 25°47' W 080°10'0 0.0
2020-Apr-05 14:30N 25°47' W 080°10'0 0.0
2020-Apr-05 14:00N 25°47' W 080°10'0 0.0
2020-Apr-05 13:30N 25°47' W 080°10'0 0.0
2020-Apr-05 13:00N 25°47' W 080°10'0 0.0
2020-Apr-05 11:00N 25°47' W 080°10'0 0.0
2020-Apr-05 08:00N 25°47' W 080°10'0 0.0
2020-Apr-05 07:30N 25°47' W 080°10'0 0.0
2020-Apr-05 07:00N 25°47' W 080°10'0 0.0
2020-Apr-05 06:30N 25°47' W 080°10'0 0.0
2020-Apr-05 01:27N 25°47' W 080°10'0 0.0
2020-Apr-04 23:30N 25°47' W 080°10'0 0.0
2020-Apr-04 22:00N 25°47' W 080°10'0 0.0
2020-Apr-04 21:30N 25°47' W 080°10'0 0.0
2020-Apr-04 20:00N 25°47' W 080°10'0 0.0
2020-Apr-04 19:30N 25°47' W 080°10'0 0.0
2020-Apr-04 17:00N 25°47' W 080°10'0 0.0
2020-Apr-04 16:00N 25°47' W 080°10'0 0.0
2020-Apr-04 15:00N 25°47' W 080°10'0 0.0
2020-Apr-04 14:30N 25°47' W 080°10'0 0.0
2020-Apr-04 14:00N 25°47' W 080°10'0 0.0
2020-Apr-04 13:30N 25°47' W 080°10'0 0.0
2020-Apr-04 11:30N 25°47' W 080°10'0 0.0
2020-Apr-04 11:00N 25°47' W 080°10'0 0.0
2020-Apr-04 10:30N 25°47' W 080°10'0 0.0
2020-Apr-04 10:00N 25°47' W 080°10'0 0.0
2020-Apr-04 07:30N 25°47' W 080°10'0 0.0
2020-Apr-04 04:00N 25°47' W 080°10'0 0.0
2020-Apr-04 03:00N 25°47' W 080°10'0 0.0
2020-Apr-04 02:30N 25°47' W 080°10'0 0.0
2020-Apr-04 01:00N 25°47' W 080°10'0 0.0
2020-Apr-03 22:30N 25°47' W 080°10'0 0.0
2020-Apr-03 22:00N 25°47' W 080°10'0 0.0
2020-Apr-03 21:30N 25°47' W 080°10'0 0.0
2020-Apr-03 20:30N 25°47' W 080°10'0 0.0
2020-Apr-03 19:30N 25°47' W 080°10'0 0.0
2020-Apr-03 16:30N 25°47' W 080°10'0 0.0
2020-Apr-03 16:00N 25°47' W 080°10'0 0.0
2020-Apr-03 15:30N 25°47' W 080°10'1 0.3
2020-Apr-03 13:00N 25°46' W 080°10'10 4.8
2020-Apr-03 11:00N 25°47' W 079°59'0 0.4
2020-Apr-03 10:00N 25°46' W 079°58'13 6.4
2020-Apr-03 08:00N 25°48' W 079°44'3 6.2
2020-Apr-03 07:30N 25°49' W 079°42'9 6.3
2020-Apr-03 06:00N 25°58' W 079°38'5302.7
2020-Apr-03 06:00N 25°54' W 079°36'715.3 050 / 51015.510.8 21.016.426.5
2020-Apr-03 05:30N 26°01' W 079°37'3 6.3
2020-Apr-03 05:00N 26°04' W 079°36'7418.5
2020-Apr-03 05:00N 26°00' W 079°30'1010.4 060 / 61016.210.8 21.016.426.8
2020-Apr-03 04:00N 26°10' W 079°33'3 6.3
2020-Apr-03 03:30N 26°13' W 079°31'6 6.2
2020-Apr-03 02:30N 26°18' W 079°28'48 6.4
2020-Apr-02 19:00N 27°06' W 079°24'6 6.0 350 / 21015.710.8 21.016.426.8
2020-Apr-02 18:00N 27°12' W 079°24'6 6.0 040 / 41016.310.8 19.014.226.7
2020-Apr-02 17:00N 27°18' W 079°24'   020 / 31017.110.8 21.016.426.3
2020-Mar-31 06:29N 27°42' W 078°53'7 0.3
2020-Mar-30 08:24N 27°35' W 078°55'1 1.2
2020-Mar-30 07:45N 27°35' W 078°56'2 0.9
2020-Mar-30 06:00N 27°35' W 078°58'0 0.9
2020-Mar-30 05:30N 27°36' W 078°58'2 0.6
2020-Mar-30 01:57N 27°38' W 078°58'12 0.8
2020-Mar-29 11:07N 27°37' W 079°12'2 0.8
2020-Mar-29 08:56N 27°37' W 079°10'5 0.9
2020-Mar-29 03:29N 27°36' W 079°05'1 0.7
2020-Mar-29 02:30N 27°37' W 079°04'1 0.5
2020-Mar-29 00:00N 27°38' W 079°03'0 0.6
2020-Mar-28 23:30N 27°38' W 079°03'3 1.1
2020-Mar-28 21:00N 27°40' W 079°00'21 3.8
2020-Mar-28 15:30N 27°56' W 079°14'3 0.8
2020-Mar-28 11:48N 27°53' W 079°15'0 1.3
2020-Mar-28 11:30N 27°53' W 079°15'3 1.0
2020-Mar-28 08:10N 27°51' W 079°11'1 0.8
2020-Mar-28 06:22N 27°52' W 079°10'1 0.9
2020-Mar-28 05:35N 27°52' W 079°09'78 3.6
2020-Mar-27 07:54N 26°35' W 079°26'1910.3
2020-Mar-27 06:00N 26°16' W 079°28'  
Track history (hours):
 
Tides and Currents Weather Stations Pressure Air Temp Water Temp Dewpoint Dewpoint Depression Visibility Wind Speed Wind Dir Waves Ship Positions

Carnival Conquest

Operator: Carnival Cruise Lines

Last reported at 2020-Apr-06 05:00 UTC. Time now 2020-Apr-06 18:25 UTC.
Position N 27°36' W 079°18'.

Type: Ship. MMSI: 357657000.

Wind from 100 at 25 knots

Barometer 1018.8 mb
Air temperature 19.0 ° C
Visibility: greater than 2.2 NM
Dewpoint 14.2 ° C
Water temperature 26.2 ° C

Date/timePositionNaut miles runAvg speedWind from/ knotsBaromVisibWave heightAir tempDewpointWater temp
2020-Apr-06 05:00N 27°36' W 079°18'9110.1 100 / 251018.8 2.2 19.014.226.2
2020-Apr-05 20:00N 26°06' W 079°34'1919.1
2020-Apr-05 19:00N 25°48' W 079°42'4 8.7 160 / 101015.310.8 25.019.126.5
2020-Apr-05 18:30N 25°47' W 079°47'21 8.5
2020-Apr-05 16:00N 25°47' W 080°10'0 0.0
2020-Apr-05 15:00N 25°47' W 080°10'0 0.0
2020-Apr-05 14:30N 25°47' W 080°10'0 0.0
2020-Apr-05 14:00N 25°47' W 080°10'0 0.0
2020-Apr-05 13:30N 25°47' W 080°10'0 0.0
2020-Apr-05 13:00N 25°47' W 080°10'0 0.0
2020-Apr-05 11:00N 25°47' W 080°10'0 0.0
2020-Apr-05 08:00N 25°47' W 080°10'0 0.0
2020-Apr-05 07:30N 25°47' W 080°10'0 0.0
2020-Apr-05 07:00N 25°47' W 080°10'0 0.0
2020-Apr-05 06:30N 25°47' W 080°10'0 0.0
2020-Apr-05 01:27N 25°47' W 080°10'0 0.0
2020-Apr-04 23:30N 25°47' W 080°10'0 0.0
2020-Apr-04 22:00N 25°47' W 080°10'0 0.0
2020-Apr-04 21:30N 25°47' W 080°10'0 0.0
2020-Apr-04 20:00N 25°47' W 080°10'0 0.0
2020-Apr-04 19:30N 25°47' W 080°10'0 0.0
2020-Apr-04 17:00N 25°47' W 080°10'0 0.0
2020-Apr-04 16:00N 25°47' W 080°10'0 0.0
2020-Apr-04 15:00N 25°47' W 080°10'0 0.0
2020-Apr-04 14:30N 25°47' W 080°10'0 0.0
2020-Apr-04 14:00N 25°47' W 080°10'0 0.0
2020-Apr-04 13:30N 25°47' W 080°10'0 0.0
2020-Apr-04 11:30N 25°47' W 080°10'0 0.0
2020-Apr-04 11:00N 25°47' W 080°10'0 0.0
2020-Apr-04 10:30N 25°47' W 080°10'0 0.0
2020-Apr-04 10:00N 25°47' W 080°10'0 0.0
2020-Apr-04 07:30N 25°47' W 080°10'0 0.0
2020-Apr-04 04:00N 25°47' W 080°10'0 0.0
2020-Apr-04 03:00N 25°47' W 080°10'0 0.0
2020-Apr-04 02:30N 25°47' W 080°10'0 0.0
2020-Apr-04 01:00N 25°47' W 080°10'0 0.0
2020-Apr-03 22:30N 25°47' W 080°10'0 0.0
2020-Apr-03 22:00N 25°47' W 080°10'0 0.0
2020-Apr-03 21:30N 25°47' W 080°10'0 0.0
2020-Apr-03 20:30N 25°47' W 080°10'0 0.0
2020-Apr-03 19:30N 25°47' W 080°10'0 0.0
2020-Apr-03 16:30N 25°47' W 080°10'0 0.0
2020-Apr-03 16:00N 25°47' W 080°10'0 0.0
2020-Apr-03 15:30N 25°47' W 080°10'1 0.3
2020-Apr-03 13:00N 25°46' W 080°10'10 4.8
2020-Apr-03 11:00N 25°47' W 079°59'0 0.4
2020-Apr-03 10:00N 25°46' W 079°58'13 6.4
2020-Apr-03 08:00N 25°48' W 079°44'3 6.2
2020-Apr-03 07:30N 25°49' W 079°42'9 6.3
2020-Apr-03 06:00N 25°58' W 079°38'5302.7
2020-Apr-03 06:00N 25°54' W 079°36'715.3 050 / 51015.510.8 21.016.426.5
2020-Apr-03 05:30N 26°01' W 079°37'3 6.3
2020-Apr-03 05:00N 26°04' W 079°36'7418.5
2020-Apr-03 05:00N 26°00' W 079°30'1010.4 060 / 61016.210.8 21.016.426.8
2020-Apr-03 04:00N 26°10' W 079°33'3 6.3
2020-Apr-03 03:30N 26°13' W 079°31'6 6.2
2020-Apr-03 02:30N 26°18' W 079°28'48 6.4
2020-Apr-02 19:00N 27°06' W 079°24'6 6.0 350 / 21015.710.8 21.016.426.8
2020-Apr-02 18:00N 27°12' W 079°24'6 6.0 040 / 41016.310.8 19.014.226.7
2020-Apr-02 17:00N 27°18' W 079°24'   020 / 31017.110.8 21.016.426.3
2020-Mar-31 06:29N 27°42' W 078°53'7 0.3
2020-Mar-30 08:24N 27°35' W 078°55'1 1.2
2020-Mar-30 07:45N 27°35' W 078°56'2 0.9
2020-Mar-30 06:00N 27°35' W 078°58'0 0.9
2020-Mar-30 05:30N 27°36' W 078°58'2 0.6
2020-Mar-30 01:57N 27°38' W 078°58'12 0.8
2020-Mar-29 11:07N 27°37' W 079°12'2 0.8
2020-Mar-29 08:56N 27°37' W 079°10'5 0.9
2020-Mar-29 03:29N 27°36' W 079°05'1 0.7
2020-Mar-29 02:30N 27°37' W 079°04'1 0.5
2020-Mar-29 00:00N 27°38' W 079°03'0 0.6
2020-Mar-28 23:30N 27°38' W 079°03'3 1.1
2020-Mar-28 21:00N 27°40' W 079°00'21 3.8
2020-Mar-28 15:30N 27°56' W 079°14'3 0.8
2020-Mar-28 11:48N 27°53' W 079°15'0 1.3
2020-Mar-28 11:30N 27°53' W 079°15'3 1.0
2020-Mar-28 08:10N 27°51' W 079°11'1 0.8
2020-Mar-28 06:22N 27°52' W 079°10'1 0.9
2020-Mar-28 05:35N 27°52' W 079°09'78 3.6
2020-Mar-27 07:54N 26°35' W 079°26'1910.3
2020-Mar-27 06:00N 26°16' W 079°28'  

Dump ship's entire track history